Terminal Aerodrome Forecast
Issued by NWS Flagstaff, AZ

Current Version | Previous Version | Text Only | Print | Product List | Glossary On
Versions: 1 2 3 4 5 6 7 8 9 10 11 12 13 14 15 16
000
FTUS45 KFGZ 201700
TAFFLG
TAF
KFLG 201720Z 2018/2118 00000KT P6SM SCT050
     FM201930 29007KT P6SM BKN060
      TEMPO 2021/2024 VRB15G25KT BKN060CB
     FM210200 VRB03KT P6SM FEW080 FEW250=

USA.gov is the U.S. government's official web portal to all federal, state and local government web resources and services.